Murray, KY

4:36 AM CST on December 09, 2019 (GMT -0600)
Kyle-Oakley

Weather History for KCEY - October, 2019

Change the Weather History Date:

Saturday, October 5, 2019

  Actual Average (KPAH) Record (KPAH)
Temperature  
Mean Temperature 71 °F -  
Max Temperature 89 °F 76 °F 91 °F (2018)
Min Temperature 53 °F 49 °F 32 °F (1980)
Cooling Degree Days 6    
Growing Degree Days 21 (Base 50)    
Moisture  
Dew Point 47 °F    
Average Humidity 52    
Maximum Humidity 82    
Minimum Humidity 16    
Precipitation  
Precipitation 0.00 in - - ()
Sea Level Pressure  
Sea Level Pressure 30.04 in    
Wind  
Wind Speed 5 mph (NE)    
Max Wind Speed 9 mph    
Max Gust Speed -    
Visibility 10 miles    
Events      
Averages and records for this station are not official NWS values.
T = Trace of Precipitation, MM = Missing Value Source: NWS Daily Summary

Daily Weather History Graph

Daily Weather History Graph

Search for Another Location

Airport or City:

Astronomy

Oct. 05, 2019 Rise Set
Actual Time 6:51 AM CDT 6:31 PM CDT
Civil Twilight 6:26 AM CDT 6:57 PM CDT
Nautical Twilight 5:56 AM CDT 7:27 PM CDT
Astronomical Twilight 5:26 AM CDT 7:57 PM CDT
Moon 2:08 PM CDT (10/5) No Moon Set
Length of Visible Light 12h 31m
Length of Day
11h 39m
Waxing Crescent, 50% of the Moon is Illuminated
Oct 5
Waxing Crescent
Oct 13
Full
Oct 21
Last Quarter
Oct 27
New
Nov 4
First Quarter

Hourly Weather History & Observations

Time (CDT) Temp. Dew Point Humidity Pressure Visibility Wind Dir Wind Speed Gust Speed Precip Events Conditions
12:35 AM 59.0 °F 48.2 °F 67% 30.13 in 10.0 mi NE 8.1 mph - N/A   Unknown
12:55 AM 59.0 °F 48.2 °F 67% 30.13 in 10.0 mi NE 8.1 mph - N/A   Clear
1:15 AM 57.2 °F 48.2 °F 72% 30.12 in 10.0 mi NE 6.9 mph - N/A   Clear
1:35 AM 57.2 °F 48.2 °F 72% 30.12 in 10.0 mi ENE 4.6 mph - N/A   Clear
1:55 AM 57.2 °F 48.2 °F 72% 30.11 in 10.0 mi ENE 5.8 mph - N/A   Clear
2:15 AM 57.2 °F 48.2 °F 72% 30.11 in 10.0 mi NE 6.9 mph - N/A   Clear
2:35 AM 57.2 °F 46.4 °F 67% 30.10 in 10.0 mi ENE 5.8 mph - N/A   Unknown
2:55 AM 57.2 °F 46.4 °F 67% 30.10 in 10.0 mi NE 4.6 mph - N/A   Unknown
3:15 AM 57.2 °F 46.4 °F 67% 30.10 in 10.0 mi NE 4.6 mph - N/A   Unknown
3:35 AM 55.4 °F 46.4 °F 72% 30.09 in 10.0 mi ENE 4.6 mph - N/A   Unknown
3:55 AM 55.4 °F 46.4 °F 72% 30.08 in 10.0 mi ENE 6.9 mph - N/A   Clear
4:15 AM 55.4 °F 46.4 °F 72% 30.08 in 10.0 mi ENE 4.6 mph - N/A   Clear
4:35 AM 55.4 °F 46.4 °F 72% 30.08 in 10.0 mi NE 3.5 mph - N/A   Clear
4:55 AM 55.4 °F 48.2 °F 77% 30.08 in 10.0 mi Calm Calm - N/A   Clear
5:15 AM 53.6 °F 48.2 °F 82% 30.08 in 10.0 mi Calm Calm - N/A   Clear
5:35 AM 53.6 °F 48.2 °F 82% 30.08 in 10.0 mi NE 4.6 mph - N/A   Clear
5:55 AM 53.6 °F 48.2 °F 82% 30.08 in 10.0 mi NNE 3.5 mph - N/A   Unknown
6:15 AM 53.6 °F 48.2 °F 82% 30.08 in 10.0 mi ENE 3.5 mph - N/A   Unknown
6:35 AM 53.6 °F 48.2 °F 82% 30.08 in 10.0 mi NE 4.6 mph - N/A   Unknown
6:55 AM 53.6 °F 48.2 °F 82% 30.08 in 10.0 mi NE 4.6 mph - N/A   Unknown
7:15 AM 53.6 °F 48.2 °F 82% 30.08 in 10.0 mi NE 4.6 mph - N/A   Clear
7:35 AM 55.4 °F 50.0 °F 82% 30.09 in 10.0 mi NE 4.6 mph - N/A   Clear
7:55 AM 57.2 °F 50.0 °F 77% 30.09 in 10.0 mi NNE 3.5 mph - N/A   Clear
8:15 AM 59.0 °F 50.0 °F 72% 30.10 in 10.0 mi NNE 4.6 mph - N/A   Clear
8:35 AM 60.8 °F 48.2 °F 63% 30.10 in 9.0 mi NE 5.8 mph - N/A   Clear
8:55 AM 62.6 °F 48.2 °F 59% 30.09 in 10.0 mi ENE 5.8 mph - N/A   Clear
9:15 AM 64.4 °F 48.2 °F 56% 30.08 in 10.0 mi ENE 8.1 mph - N/A   Clear
9:55 AM 66.2 °F 48.2 °F 52% 30.08 in 10.0 mi Calm Calm - N/A   Clear
10:15 AM 68.0 °F 48.2 °F 49% 30.08 in 10.0 mi NE 4.6 mph - N/A   Clear
10:35 AM 71.6 °F 48.2 °F 43% 30.07 in 10.0 mi Calm Calm - N/A   Clear
10:55 AM 73.4 °F 48.2 °F 41% 30.06 in 10.0 mi Calm Calm - N/A   Clear
11:15 AM 75.2 °F 48.2 °F 38% 30.06 in 10.0 mi Calm Calm - N/A   Clear
11:35 AM 75.2 °F 48.2 °F 38% 30.06 in 10.0 mi Calm Calm - N/A   Clear
11:55 AM 77.0 °F 48.2 °F 36% 30.05 in 10.0 mi Calm Calm - N/A   Clear
12:15 PM 80.6 °F 46.4 °F 30% 30.03 in 10.0 mi Calm Calm - N/A   Clear
12:35 PM 80.6 °F 46.4 °F 30% 30.02 in 10.0 mi East 3.5 mph - N/A   Clear
12:55 PM 82.4 °F 44.6 °F 26% 30.01 in 10.0 mi Calm Calm - N/A   Clear
1:15 PM 82.4 °F 39.2 °F 21% 30.00 in 10.0 mi South 5.8 mph - N/A   Clear
1:35 PM 86.0 °F 41.0 °F 20% 30.00 in 10.0 mi SW 4.6 mph - N/A   Clear
1:55 PM 86.0 °F 41.0 °F 20% 29.99 in 10.0 mi West 5.8 mph - N/A   Clear
2:35 PM 87.8 °F 42.8 °F 21% 29.98 in 10.0 mi WNW 4.6 mph - N/A   Clear
2:55 PM 89.6 °F 41.0 °F 18% 29.98 in 10.0 mi SW 9.2 mph - N/A   Clear
3:15 PM 89.6 °F 37.4 °F 16% 29.97 in 10.0 mi SW 8.1 mph - N/A   Clear
3:35 PM 87.8 °F 41.0 °F 19% 29.97 in 10.0 mi WSW 5.8 mph - N/A   Clear
3:55 PM 89.6 °F 41.0 °F 18% 29.97 in 10.0 mi WNW 3.5 mph - N/A   Clear
4:15 PM 87.8 °F 39.2 °F 18% 29.97 in 10.0 mi West 8.1 mph - N/A   Clear
4:35 PM 86.0 °F 39.2 °F 19% 29.97 in 10.0 mi West 6.9 mph - N/A   Clear
4:55 PM 84.2 °F 41.0 °F 22% 29.97 in 10.0 mi West 5.8 mph - N/A   Clear
5:15 PM 84.2 °F 42.8 °F 23% 29.97 in 10.0 mi West 4.6 mph - N/A   Clear
5:35 PM 82.4 °F 44.6 °F 26% 29.97 in 10.0 mi WNW 3.5 mph - N/A   Scattered Clouds
5:55 PM 82.4 °F 44.6 °F 26% 29.96 in 10.0 mi Calm Calm - N/A   Mostly Cloudy
6:15 PM 77.0 °F 48.2 °F 36% 29.96 in 10.0 mi Calm Calm - N/A   Scattered Clouds
6:35 PM 75.2 °F 46.4 °F 36% 29.97 in 10.0 mi Calm Calm - N/A   Partly Cloudy
6:55 PM 75.2 °F 50.0 °F 41% 29.97 in 9.0 mi Calm Calm - N/A   Clear
7:15 PM 71.6 °F 48.2 °F 43% 29.98 in 10.0 mi ENE 3.5 mph - N/A   Clear
7:35 PM 71.6 °F 48.2 °F 43% 29.98 in 10.0 mi Calm Calm - N/A   Clear
7:55 PM 71.6 °F 50.0 °F 46% 29.98 in 10.0 mi Calm Calm - N/A   Clear
8:15 PM 71.6 °F 50.0 °F 46% 29.98 in 10.0 mi Calm Calm - N/A   Clear
8:35 PM 69.8 °F 51.8 °F 53% 29.99 in 10.0 mi Calm Calm - N/A   Clear
8:55 PM 69.8 °F 50.0 °F 49% 30.00 in 10.0 mi Calm Calm - N/A   Clear
9:15 PM 68.0 °F 53.6 °F 60% 30.00 in 10.0 mi Calm Calm - N/A   Clear
9:35 PM 68.0 °F 51.8 °F 56% 30.00 in 10.0 mi Calm Calm - N/A   Clear
9:55 PM 68.0 °F 51.8 °F 56% 30.00 in 10.0 mi Calm Calm - N/A   Partly Cloudy
10:15 PM 68.0 °F 51.8 °F 56% 29.99 in 10.0 mi SSE 4.6 mph - N/A   Unknown
10:35 PM 68.0 °F 53.6 °F 60% 29.99 in 10.0 mi SSE 4.6 mph - N/A   Clear
10:55 PM 66.2 °F 53.6 °F 64% 29.99 in 10.0 mi SSE 3.5 mph - N/A   Clear
11:15 PM 66.2 °F 50.0 °F 56% 29.99 in 10.0 mi SSE 5.8 mph - N/A   Clear
11:35 PM 66.2 °F 51.8 °F 60% 29.98 in 10.0 mi South 3.5 mph - N/A   Clear
11:55 PM 66.2 °F 51.8 °F 60% 29.98 in 10.0 mi WSW 4.6 mph - N/A   Clear